Time;durP1;ratioP1;P1;durP2;ratioP2;P2;SDS_P1;SDS_P2;PMS_P1;PMS_P2;Temp;Humidity;BMP_temperature;BMP_pressure;BME280_temperature;BME280_humidity;BME280_pressure;Samples;Min_cycle;Max_cycle;Signal;HPM_P1;HPM_P2
2022/04/27 00:01:41;;;;;;;22.67;16.13;;;7.80;51.70;;;;;;7378103;19;20047;-65
2022/04/27 00:04:11;;;;;;;23.02;16.40;;;7.80;52.10;;;;;;7360437;19;20016;-65
2022/04/27 00:06:41;;;;;;;21.38;16.00;;;7.90;52.10;;;;;;7362878;19;20014;-64
2022/04/27 00:09:13;;;;;;;26.02;17.42;;;7.90;52.10;;;;;;7362762;19;20018;-65
2022/04/27 00:11:46;;;;;;;27.83;17.50;;;7.90;52.50;;;;;;7354875;19;20015;-65
2022/04/27 00:14:16;;;;;;;25.92;17.55;;;7.90;52.30;;;;;;7359036;19;20107;-64
2022/04/27 00:16:46;;;;;;;26.15;17.77;;;7.90;52.20;;;;;;7362579;19;20014;-64
2022/04/27 00:19:16;;;;;;;27.33;18.15;;;7.90;52.70;;;;;;7384467;19;20026;-64
2022/04/27 00:21:46;;;;;;;28.27;18.38;;;7.80;52.60;;;;;;7354600;19;20123;-64
2022/04/27 00:24:16;;;;;;;25.85;17.98;;;7.90;54.20;;;;;;7359063;19;20010;-63
2022/04/27 00:26:48;;;;;;;26.58;17.55;;;7.90;52.70;;;;;;7363319;19;20013;-65
2022/04/27 00:29:18;;;;;;;27.05;18.70;;;8.00;53.40;;;;;;7361146;19;20013;-64
2022/04/27 00:31:48;;;;;;;29.05;19.58;;;7.90;53.00;;;;;;7356795;19;20109;-64
2022/04/27 00:34:18;;;;;;;31.38;19.63;;;8.00;53.40;;;;;;7387425;19;20026;-65
2022/04/27 00:36:48;;;;;;;33.78;21.63;;;8.10;53.00;;;;;;7369572;19;20379;-64
2022/04/27 00:39:19;;;;;;;32.45;20.35;;;8.00;52.70;;;;;;7368777;19;20077;-65
2022/04/27 00:42:02;;;;;;;35.25;19.63;;;8.10;52.90;;;;;;7361596;19;20021;-63
2022/04/27 00:44:33;;;;;;;35.55;21.52;;;8.10;52.60;;;;;;7366202;19;20010;-64
2022/04/27 00:47:04;;;;;;;31.80;21.00;;;8.10;52.50;;;;;;7369891;19;20031;-65
2022/04/27 00:49:34;;;;;;;37.15;22.65;;;8.00;52.70;;;;;;7390426;19;20011;-64
2022/04/27 00:52:04;;;;;;;34.50;22.15;;;8.00;52.90;;;;;;7363450;19;20011;-63
2022/04/27 00:54:35;;;;;;;36.70;23.55;;;8.00;54.00;;;;;;7364414;19;20325;-64
2022/04/27 00:57:10;;;;;;;31.08;21.13;;;8.00;53.90;;;;;;7369986;19;20021;-63
2022/04/27 00:59:40;;;;;;;37.30;23.90;;;8.00;54.20;;;;;;7369533;19;20070;-65
2022/04/27 01:02:11;;;;;;;38.17;22.05;;;7.90;55.20;;;;;;7361723;19;20007;-65
2022/04/27 01:04:41;;;;;;;35.97;22.55;;;8.00;55.20;;;;;;7389204;19;20022;-65
2022/04/27 01:07:11;;;;;;;39.20;23.52;;;8.00;54.30;;;;;;7369355;19;20454;-65
2022/04/27 01:09:42;;;;;;;38.53;24.13;;;8.10;55.00;;;;;;7367259;19;20011;-65
2022/04/27 01:12:15;;;;;;;43.80;25.02;;;8.10;55.00;;;;;;7361569;19;20011;-65
2022/04/27 01:14:45;;;;;;;39.00;24.13;;;8.10;53.80;;;;;;7368935;19;20049;-64
2022/04/27 01:17:15;;;;;;;36.67;22.90;;;8.10;54.20;;;;;;7367674;19;20480;-64
2022/04/27 01:19:45;;;;;;;34.85;22.35;;;8.10;53.20;;;;;;7367997;19;20696;-65
2022/04/27 01:22:17;;;;;;;39.15;24.88;;;8.10;53.40;;;;;;7380523;19;20025;-64
2022/04/27 01:24:49;;;;;;;36.08;22.58;;;8.10;54.10;;;;;;7364489;19;20489;-63
2022/04/27 01:27:19;;;;;;;38.80;24.55;;;8.10;53.80;;;;;;7367785;19;20038;-64
2022/04/27 01:29:48;;;;;;;37.85;23.73;;;8.20;53.80;;;;;;7367276;19;20017;-64
2022/04/27 01:32:18;;;;;;;36.58;23.77;;;8.10;53.30;;;;;;7357149;19;20014;-64
2022/04/27 01:34:48;;;;;;;38.30;24.65;;;8.10;53.30;;;;;;7365606;19;20018;-64
2022/04/27 01:40:06;;;;;;;39.85;25.02;;;8.10;53.60;;;;;;7368699;19;20097;-64
2022/04/27 01:42:37;;;;;;;39.50;24.38;;;8.20;53.90;;;;;;7356357;19;20012;-65
2022/04/27 01:45:08;;;;;;;37.85;23.42;;;8.20;53.60;;;;;;7366662;19;20010;-64
2022/04/27 01:47:38;;;;;;;39.22;25.10;;;8.20;53.60;;;;;;7368551;19;20021;-63
2022/04/27 01:50:11;;;;;;;38.20;25.30;;;8.10;52.80;;;;;;7366357;19;20007;-65
2022/04/27 01:55:26;;;;;;;37.08;23.80;;;8.20;52.90;;;;;;7386545;19;20028;-64
2022/04/27 01:57:58;;;;;;;36.83;24.13;;;8.20;53.50;;;;;;7368403;19;20003;-66
2022/04/27 02:00:28;;;;;;;38.78;24.77;;;8.20;54.80;;;;;;7368435;19;20011;-65
2022/04/27 02:02:59;;;;;;;37.85;23.58;;;8.20;54.40;;;;;;7358297;19;20517;-64
2022/04/27 02:05:29;;;;;;;38.80;24.52;;;8.20;54.70;;;;;;7365876;19;20013;-66
2022/04/27 02:08:01;;;;;;;38.92;23.13;;;8.20;54.60;;;;;;7367008;19;20470;-67
2022/04/27 02:10:31;;;;;;;37.30;22.75;;;8.10;54.40;;;;;;7389263;19;20478;-64
2022/04/27 02:13:01;;;;;;;34.25;22.58;;;8.10;55.80;;;;;;7357935;19;20011;-65
2022/04/27 02:15:33;;;;;;;35.97;22.73;;;8.00;55.40;;;;;;7365946;19;20021;-68
2022/04/27 02:18:04;;;;;;;38.72;24.42;;;8.10;55.90;;;;;;7366921;19;20006;-66
2022/04/27 02:20:34;;;;;;;37.88;23.90;;;8.00;56.80;;;;;;7367846;19;20002;-66
2022/04/27 02:23:12;;;;;;;;;;;8.00;57.40;;;;;;7359116;19;20010;-66
2022/04/27 02:25:42;;;;;;;42.65;25.98;;;8.10;58.50;;;;;;7378397;19;19918;-66
2022/04/27 02:28:12;;;;;;;38.30;24.40;;;8.00;58.90;;;;;;7388305;19;20048;-65
2022/04/27 02:30:42;;;;;;;40.28;24.20;;;8.00;58.80;;;;;;7365807;19;20014;-64
2022/04/27 02:33:12;;;;;;;42.05;25.30;;;8.00;59.50;;;;;;7357587;19;20010;-65
2022/04/27 02:35:42;;;;;;;40.67;25.20;;;8.00;59.60;;;;;;7364746;19;20050;-65
2022/04/27 02:38:14;;;;;;;46.72;26.25;;;8.00;60.40;;;;;;7367301;19;20700;-66
2022/04/27 02:40:44;;;;;;;41.72;25.77;;;8.00;60.50;;;;;;7367039;19;20006;-64
2022/04/27 02:43:14;;;;;;;40.88;24.90;;;8.00;60.60;;;;;;7379397;19;20359;-65
2022/04/27 02:45:45;;;;;;;43.40;26.23;;;8.00;60.60;;;;;;7363451;19;20015;-65
2022/04/27 02:48:15;;;;;;;42.78;25.33;;;8.00;61.20;;;;;;7366092;19;20002;-64
2022/04/27 02:53:30;;;;;;;43.25;26.27;;;8.00;62.20;;;;;;7357147;19;20027;-64
2022/04/27 02:56:00;;;;;;;35.72;23.60;;;8.00;62.00;;;;;;7363275;19;20026;-64
2022/04/27 02:58:30;;;;;;;38.17;23.50;;;8.00;61.40;;;;;;7388175;19;20036;-64
2022/04/27 03:01:01;;;;;;;36.92;23.02;;;8.00;62.10;;;;;;7362940;19;20709;-64
2022/04/27 03:03:32;;;;;;;36.42;22.77;;;8.00;61.20;;;;;;7351025;19;20097;-63
2022/04/27 03:06:02;;;;;;;37.35;23.13;;;8.00;61.00;;;;;;7364467;19;20011;-64
2022/04/27 03:08:35;;;;;;;35.75;23.20;;;8.00;61.90;;;;;;7362817;19;20493;-65
2022/04/27 03:11:05;;;;;;;36.38;22.80;;;8.00;62.40;;;;;;7362959;19;20501;-66
2022/04/27 03:13:36;;;;;;;33.92;20.67;;;8.00;62.20;;;;;;7377270;19;20003;-64
2022/04/27 03:16:06;;;;;;;33.55;21.98;;;7.90;61.90;;;;;;7364656;19;20011;-63
2022/04/27 03:18:36;;;;;;;34.38;22.27;;;8.00;62.80;;;;;;7364969;19;20021;-65
2022/04/27 03:21:07;;;;;;;33.80;22.60;;;8.00;63.00;;;;;;7363317;19;20015;-65
2022/04/27 03:23:39;;;;;;;32.47;20.38;;;8.00;63.00;;;;;;7354407;19;20483;-66
2022/04/27 03:26:09;;;;;;;32.45;20.42;;;8.00;63.10;;;;;;7364665;19;20010;-64
2022/04/27 03:28:39;;;;;;;33.92;20.55;;;8.00;63.00;;;;;;7385543;19;20019;-63
2022/04/27 03:31:09;;;;;;;33.00;19.75;;;8.00;63.40;;;;;;7363532;19;20018;-63
2022/04/27 03:33:40;;;;;;;34.58;20.88;;;8.00;63.90;;;;;;7356299;19;20017;-64
2022/04/27 03:36:11;;;;;;;30.40;19.92;;;8.00;63.50;;;;;;7363414;19;20036;-64
2022/04/27 03:38:44;;;;;;;29.80;19.60;;;7.90;63.10;;;;;;7364393;19;20483;-64
2022/04/27 03:41:14;;;;;;;32.08;19.95;;;7.90;62.90;;;;;;7363934;19;20010;-64
2022/04/27 03:43:44;;;;;;;31.30;18.63;;;8.00;63.00;;;;;;7355070;19;20038;-64
2022/04/27 03:46:15;;;;;;;31.55;19.05;;;8.00;62.70;;;;;;7385421;19;20021;-64
2022/04/27 03:49:05;;;;;;;28.52;19.55;;;8.00;63.20;;;;;;7363647;19;20019;-64
2022/04/27 03:51:35;;;;;;;25.60;18.20;;;8.00;63.20;;;;;;7357241;19;20675;-64
2022/04/27 03:54:07;;;;;;;26.70;17.52;;;8.00;63.00;;;;;;7360757;19;20474;-63
2022/04/27 03:56:37;;;;;;;25.83;17.85;;;8.00;61.40;;;;;;7365071;19;20016;-63
2022/04/27 03:59:07;;;;;;;26.45;17.27;;;8.10;62.90;;;;;;7363902;19;20862;-64
2022/04/27 04:01:37;;;;;;;23.15;15.52;;;8.10;62.10;;;;;;7379868;19;20018;-63
2022/04/27 04:04:07;;;;;;;22.75;14.85;;;8.00;61.30;;;;;;7360283;19;20021;-62
2022/04/27 04:06:39;;;;;;;23.27;15.65;;;8.10;62.40;;;;;;7363264;19;20017;-63
2022/04/27 04:09:12;;;;;;;25.63;16.10;;;8.10;62.20;;;;;;7362745;19;20475;-64
2022/04/27 04:11:42;;;;;;;23.48;15.07;;;8.10;62.40;;;;;;7357411;19;20014;-63
2022/04/27 04:14:12;;;;;;;22.95;15.80;;;8.10;61.80;;;;;;7359595;19;20042;-63
2022/04/27 04:16:41;;;;;;;21.98;15.25;;;8.10;61.40;;;;;;7380916;19;20481;-65
2022/04/27 04:19:12;;;;;;;23.40;15.63;;;8.10;61.00;;;;;;7386460;19;20046;-63
2022/04/27 04:21:42;;;;;;;21.75;14.55;;;8.00;60.70;;;;;;7355278;19;20014;-63
2022/04/27 04:24:17;;;;;;;25.73;16.45;;;8.20;61.40;;;;;;7360058;19;20015;-63
2022/04/27 04:29:31;;;;;;;22.55;15.30;;;8.20;60.40;;;;;;7363008;19;20601;-63
2022/04/27 04:32:01;;;;;;;22.15;15.38;;;8.20;59.50;;;;;;7355557;19;20018;-64
2022/04/27 04:34:31;;;;;;;24.80;16.77;;;8.10;60.80;;;;;;7381238;19;20025;-63
2022/04/27 04:37:01;;;;;;;23.88;16.20;;;8.10;60.80;;;;;;7362834;19;20482;-64
2022/04/27 04:39:34;;;;;;;21.90;15.35;;;8.20;60.10;;;;;;7361185;19;20359;-63
2022/04/27 04:42:04;;;;;;;21.83;15.10;;;8.20;60.60;;;;;;7356112;19;20007;-63
2022/04/27 04:44:34;;;;;;;19.63;14.98;;;8.20;60.40;;;;;;7360472;19;20017;-64
2022/04/27 04:47:05;;;;;;;22.58;15.80;;;8.10;60.10;;;;;;7362102;19;20478;-64
2022/04/27 04:49:35;;;;;;;24.70;16.52;;;8.20;60.70;;;;;;7383725;19;20091;-63
2022/04/27 04:52:07;;;;;;;24.05;17.45;;;8.20;60.90;;;;;;7354619;19;20011;-63
2022/04/27 04:54:40;;;;;;;27.25;17.40;;;8.30;61.00;;;;;;7360371;19;20019;-63
2022/04/27 04:57:10;;;;;;;28.70;17.80;;;8.30;59.80;;;;;;7362385;19;20784;-63
2022/04/27 04:59:40;;;;;;;27.85;18.00;;;8.30;60.60;;;;;;7362342;19;20014;-63
2022/04/27 05:02:10;;;;;;;27.17;17.65;;;8.30;60.30;;;;;;7353143;19;20014;-63
2022/04/27 05:04:40;;;;;;;24.38;16.77;;;8.30;60.10;;;;;;7381966;19;20102;-66
2022/04/27 05:07:10;;;;;;;25.85;17.65;;;8.30;60.80;;;;;;7363036;19;20014;-62
2022/04/27 05:09:42;;;;;;;25.38;16.63;;;8.40;61.00;;;;;;7361959;19;20098;-64
2022/04/27 05:12:13;;;;;;;24.98;16.35;;;8.40;60.50;;;;;;7351074;19;20020;-63
2022/04/27 05:14:42;;;;;;;23.95;16.23;;;8.30;59.00;;;;;;7360268;19;20011;-63
2022/04/27 05:17:12;;;;;;;25.92;17.50;;;8.30;60.30;;;;;;7361937;19;20017;-63
2022/04/27 05:19:42;;;;;;;21.88;15.45;;;8.40;59.70;;;;;;7381029;19;20018;-64
2022/04/27 05:22:12;;;;;;;24.58;16.80;;;8.30;58.80;;;;;;7381622;19;20104;-64
2022/04/27 05:24:44;;;;;;;23.88;16.13;;;8.30;59.70;;;;;;7366212;19;20024;-64
2022/04/27 05:27:15;;;;;;;22.67;16.38;;;8.30;59.30;;;;;;7368180;19;20125;-64
2022/04/27 05:32:28;;;;;;;23.40;16.23;;;8.30;59.40;;;;;;7358315;19;20057;-62
2022/04/27 05:34:57;;;;;;;25.58;15.77;;;8.30;59.40;;;;;;7364760;19;20354;-63
2022/04/27 05:37:27;;;;;;;23.48;16.73;;;8.30;60.30;;;;;;7389679;19;20051;-63
2022/04/27 05:40:00;;;;;;;22.58;16.27;;;8.30;59.40;;;;;;7367546;19;20368;-65
2022/04/27 05:42:30;;;;;;;21.35;15.77;;;8.40;58.00;;;;;;7357894;19;20688;-64
2022/04/27 05:45:00;;;;;;;21.73;16.02;;;8.40;58.70;;;;;;7366518;19;20011;-64
2022/04/27 05:47:30;;;;;;;21.65;15.75;;;8.50;58.50;;;;;;7368250;19;20017;-62
2022/04/27 05:50:00;;;;;;;20.98;15.13;;;8.50;58.10;;;;;;7366774;19;20379;-63
2022/04/27 05:52:31;;;;;;;24.00;15.60;;;8.50;58.30;;;;;;7379446;19;20101;-63
2022/04/27 05:55:03;;;;;;;21.52;15.55;;;8.40;57.10;;;;;;7365174;19;20010;-63
2022/04/27 05:57:33;;;;;;;20.42;14.40;;;8.50;58.50;;;;;;7366323;19;20015;-62
2022/04/27 06:00:03;;;;;;;19.83;14.73;;;8.50;58.20;;;;;;7366971;19;20017;-63
2022/04/27 06:02:33;;;;;;;20.65;14.70;;;8.70;58.50;;;;;;7358293;19;20084;-63
2022/04/27 06:05:03;;;;;;;21.25;14.70;;;8.60;56.80;;;;;;7365163;19;20018;-63
2022/04/27 06:07:35;;;;;;;21.10;14.38;;;8.70;55.70;;;;;;7389440;19;20057;-63
2022/04/27 06:10:10;;;;;;;22.55;14.73;;;8.70;54.20;;;;;;7366241;19;20011;-63
2022/04/27 06:12:46;;;;;;;21.38;15.00;;;8.70;53.80;;;;;;7355350;19;20721;-63
2022/04/27 06:15:17;;;;;;;21.15;15.43;;;8.70;54.50;;;;;;7365788;19;20014;-63
2022/04/27 06:17:52;;;;;;;16.52;13.55;;;8.70;54.10;;;;;;7366747;19;20021;-63
2022/04/27 06:20:22;;;;;;;22.00;15.93;;;8.70;53.30;;;;;;7366345;19;20018;-63
2022/04/27 06:22:52;;;;;;;20.20;15.35;;;8.80;53.50;;;;;;7356736;19;20034;-63
2022/04/27 06:25:25;;;;;;;20.60;15.25;;;8.80;51.20;;;;;;7385534;19;20045;-63
2022/04/27 06:27:55;;;;;;;22.27;15.27;;;8.90;53.00;;;;;;7364664;19;20015;-63
2022/04/27 06:30:25;;;;;;;20.38;15.18;;;8.90;52.60;;;;;;7363672;19;20101;-63
2022/04/27 06:32:55;;;;;;;19.40;14.43;;;9.00;51.90;;;;;;7354004;19;20013;-63
2022/04/27 06:35:24;;;;;;;18.70;13.57;;;8.90;49.50;;;;;;7364210;19;20049;-64
2022/04/27 06:37:54;;;;;;;19.08;13.63;;;8.90;49.50;;;;;;7366061;19;20024;-64
2022/04/27 06:40:27;;;;;;;18.38;12.90;;;8.90;46.80;;;;;;7387546;19;20349;-64
2022/04/27 06:42:57;;;;;;;19.40;13.65;;;8.90;49.50;;;;;;7355200;19;20082;-64
2022/04/27 06:45:28;;;;;;;20.58;14.35;;;9.00;48.60;;;;;;7363730;19;20106;-64
2022/04/27 06:47:57;;;;;;;18.42;14.00;;;9.10;47.50;;;;;;7365543;19;20530;-64
2022/04/27 06:50:28;;;;;;;20.80;13.55;;;9.30;44.30;;;;;;7366278;19;20021;-64
2022/04/27 06:52:59;;;;;;;16.80;13.45;;;9.20;42.80;;;;;;7354992;19;20021;-62
2022/04/27 06:55:31;;;;;;;16.02;12.52;;;9.30;42.50;;;;;;7385566;19;20118;-64
2022/04/27 06:58:01;;;;;;;18.77;13.25;;;9.50;41.40;;;;;;7364540;19;20021;-64
2022/04/27 07:00:31;;;;;;;14.77;11.23;;;9.60;39.50;;;;;;7363451;19;20223;-64
2022/04/27 07:03:01;;;;;;;15.63;10.98;;;9.60;34.30;;;;;;7354490;19;20010;-63
2022/04/27 07:05:31;;;;;;;11.18;9.40;;;9.70;33.70;;;;;;7365264;19;20073;-63
2022/04/27 07:08:01;;;;;;;14.07;9.93;;;9.90;29.50;;;;;;7365974;19;20034;-64
2022/04/27 07:10:36;;;;;;;13.85;10.05;;;10.00;29.40;;;;;;7386408;19;20014;-64
2022/04/27 07:13:07;;;;;;;13.20;9.77;;;10.10;29.00;;;;;;7354112;19;20014;-63
2022/04/27 07:15:38;;;;;;;12.48;9.15;;;9.90;29.50;;;;;;7364391;19;20046;-63
2022/04/27 07:18:08;;;;;;;12.65;9.63;;;10.00;28.90;;;;;;7365364;19;20094;-64
2022/04/27 07:20:39;;;;;;;12.32;9.30;;;10.20;27.10;;;;;;7366054;19;20017;-64
2022/04/27 07:23:09;;;;;;;12.85;8.93;;;10.10;28.90;;;;;;7355986;19;20014;-63
2022/04/27 07:25:41;;;;;;;14.00;9.32;;;10.10;28.50;;;;;;7383944;19;20034;-64
2022/04/27 07:28:11;;;;;;;10.73;8.20;;;10.10;28.90;;;;;;7363770;19;20320;-63
2022/04/27 07:30:41;;;;;;;9.32;7.63;;;10.40;27.00;;;;;;7364184;19;20375;-63
2022/04/27 07:33:11;;;;;;;20.10;14.13;;;10.50;22.00;;;;;;7354553;19;20002;-65
2022/04/27 07:35:41;;;;;;;9.25;6.93;;;10.60;21.50;;;;;;7363975;19;20032;-63
2022/04/27 07:38:11;;;;;;;9.27;7.18;;;10.60;20.30;;;;;;7363676;19;20024;-63
2022/04/27 07:40:44;;;;;;;9.20;7.20;;;10.70;19.10;;;;;;7384813;19;20342;-64
2022/04/27 07:43:14;;;;;;;8.38;7.43;;;10.90;19.20;;;;;;7354790;19;20101;-63
2022/04/27 07:45:45;;;;;;;9.48;7.10;;;11.00;18.10;;;;;;7363064;19;20090;-64
2022/04/27 07:48:15;;;;;;;10.63;7.32;;;11.20;15.80;;;;;;7364352;19;20438;-64
2022/04/27 07:50:45;;;;;;;9.80;6.88;;;11.70;13.00;;;;;;7364635;19;20086;-64
2022/04/27 07:53:15;;;;;;;10.23;6.72;;;11.70;10.10;;;;;;7353399;19;20422;-64
2022/04/27 07:55:47;;;;;;;7.88;6.13;;;11.30;10.70;;;;;;7360393;19;20164;-64
2022/04/27 07:58:17;;;;;;;8.20;6.25;;;11.20;10.90;;;;;;7385129;19;20017;-64
2022/04/27 08:00:47;;;;;;;7.10;6.07;;;11.50;9.30;;;;;;7362898;19;20019;-64
2022/04/27 08:03:17;;;;;;;6.90;6.20;;;11.60;7.90;;;;;;7352322;19;20014;-63
2022/04/27 08:05:47;;;;;;;10.77;6.45;;;11.10;6.60;;;;;;7361555;19;20013;-64
2022/04/27 08:08:17;;;;;;;8.63;5.95;;;11.30;8.70;;;;;;7363617;19;20354;-64
2022/04/27 08:10:51;;;;;;;7.45;6.28;;;11.40;7.80;;;;;;7363547;19;20025;-64
2022/04/27 08:13:21;;;;;;;9.23;6.28;;;11.40;7.50;;;;;;7375176;19;20019;-64
2022/04/27 08:15:51;;;;;;;8.07;6.35;;;11.50;7.50;;;;;;7361792;19;20140;-64
2022/04/27 08:18:21;;;;;;;10.20;6.28;;;11.70;7.00;;;;;;7362451;19;20010;-64
2022/04/27 08:23:36;;;;;;;7.95;6.03;;;11.80;7.30;;;;;;7351528;19;20073;-64
2022/04/27 08:26:10;;;;;;;8.10;6.50;;;11.70;7.30;;;;;;7361108;19;20040;-64
2022/04/27 08:28:41;;;;;;;7.30;5.75;;;11.20;6.00;;;;;;7384633;19;20018;-64
2022/04/27 08:31:16;;;;;;;8.80;6.05;;;11.60;6.10;;;;;;7362606;19;20601;-64
2022/04/27 08:33:45;;;;;;;;;;;11.80;5.70;;;;;;7355800;19;20135;-64
2022/04/27 08:36:15;;;;;;;7.63;5.00;;;11.80;3.70;;;;;;7361887;19;19915;-64
2022/04/27 08:39:01;;;;;;;7.25;5.65;;;11.90;5.00;;;;;;7361800;19;20476;-64
2022/04/27 08:41:34;;;;;;;7.28;6.18;;;11.80;5.70;;;;;;7359639;19;20014;-63
2022/04/27 08:44:04;;;;;;;7.60;6.20;;;12.00;3.70;;;;;;7358192;19;20097;-63
2022/04/27 08:46:37;;;;;;;6.00;5.38;;;12.00;3.10;;;;;;7383480;19;20014;-64
2022/04/27 08:49:11;;;;;;;7.28;5.65;;;12.00;2.00;;;;;;7362675;19;20010;-63
2022/04/27 08:51:41;;;;;;;7.90;5.20;;;12.10;2.80;;;;;;7355636;19;20065;-63
2022/04/27 08:54:18;;;;;;;5.38;4.82;;;12.20;2.30;;;;;;7362336;19;20050;-63
2022/04/27 08:56:51;;;;;;;5.32;4.78;;;12.30;2.30;;;;;;7368405;19;20105;-64
2022/04/27 08:59:21;;;;;;;6.15;4.95;;;12.20;2.30;;;;;;7369759;19;20016;-64
2022/04/27 09:01:53;;;;;;;5.95;5.13;;;12.50;1.60;;;;;;7363637;19;20104;-64
2022/04/27 09:04:23;;;;;;;5.75;4.32;;;12.70;1.00;;;;;;7386996;19;20353;-64
2022/04/27 09:06:53;;;;;;;7.07;5.30;;;12.60;1.60;;;;;;7368404;19;20112;-64
2022/04/27 09:09:37;;;;;;;5.60;5.00;;;12.50;1.00;;;;;;7367154;19;20114;-64
2022/04/27 09:12:16;;;;;;;5.72;5.03;;;12.40;1.00;;;;;;7364327;19;20007;-64
2022/04/27 09:14:46;;;;;;;6.22;4.53;;;12.60;1.00;;;;;;7367908;19;20018;-64
2022/04/27 09:22:58;;;;;;;5.18;4.25;;;12.50;1.00;;;;;;7359193;19;20025;-64
2022/04/27 09:25:39;;;;;;;4.50;3.97;;;12.70;1.00;;;;;;7387911;19;20029;-64
2022/04/27 09:28:32;;;;;;;6.53;5.00;;;12.50;1.00;;;;;;7367428;19;20467;-64
2022/04/27 09:31:03;;;;;;;6.75;5.03;;;12.80;1.00;;;;;;7368611;19;20010;-64
2022/04/27 09:33:35;;;;;;;6.70;5.00;;;12.70;1.00;;;;;;7359082;19;20047;-64
2022/04/27 09:36:23;;;;;;;6.53;5.22;;;13.10;1.00;;;;;;7367043;19;20003;-64
2022/04/27 09:38:53;;;;;;;6.50;4.38;;;13.00;1.00;;;;;;7367339;19;20011;-64
2022/04/27 09:41:41;;;;;;;5.72;4.60;;;13.20;1.00;;;;;;7365816;19;20503;-64
2022/04/27 09:44:28;;;;;;;4.50;4.03;;;13.10;1.00;;;;;;7363434;19;20027;-64
2022/04/27 09:46:58;;;;;;;5.20;4.25;;;13.10;1.00;;;;;;7367462;19;20021;-64
2022/04/27 09:49:28;;;;;;;15.57;4.50;;;13.50;1.00;;;;;;7390141;19;20015;-64
2022/04/27 09:52:02;;;;;;;5.30;4.00;;;13.60;1.00;;;;;;7362363;19;20018;-64
2022/04/27 09:54:34;;;;;;;5.38;4.18;;;13.80;1.00;;;;;;7362504;19;20006;-64
2022/04/27 09:57:06;;;;;;;6.68;4.47;;;13.80;1.00;;;;;;7367453;19;20031;-64
2022/04/27 09:59:39;;;;;;;6.00;5.00;;;13.20;1.00;;;;;;7367074;19;20011;-64
2022/04/27 10:02:13;;;;;;;5.68;3.80;;;13.40;1.00;;;;;;7359883;19;20010;-64
2022/04/27 10:04:44;;;;;;;4.80;4.03;;;13.30;1.00;;;;;;7363690;19;20007;-64
2022/04/27 10:07:14;;;;;;;6.28;4.18;;;13.30;1.00;;;;;;7389712;19;20021;-64
2022/04/27 10:09:45;;;;;;;4.82;4.28;;;14.20;1.00;;;;;;7366314;19;20011;-64
2022/04/27 10:12:15;;;;;;;5.03;4.03;;;13.90;1.00;;;;;;7359447;19;20010;-64
2022/04/27 10:14:47;;;;;;;4.85;3.63;;;14.20;1.00;;;;;;7365251;19;20014;-64
2022/04/27 10:17:17;;;;;;;4.68;3.92;;;14.40;1.00;;;;;;7363708;19;20011;-65
2022/04/27 10:19:48;;;;;;;4.90;4.40;;;14.20;1.00;;;;;;7365239;19;20089;-63
2022/04/27 10:22:30;;;;;;;6.15;4.20;;;13.90;1.00;;;;;;7380640;19;20021;-64
2022/04/27 10:25:06;;;;;;;6.18;4.30;;;13.60;1.00;;;;;;7363173;19;20015;-63
2022/04/27 10:27:40;;;;;;;5.93;4.70;;;13.50;1.00;;;;;;7366148;19;20639;-64
2022/04/27 10:30:14;;;;;;;;;;;13.40;1.00;;;;;;7363322;19;20018;-63
2022/04/27 10:32:46;;;;;;;6.00;4.90;;;13.70;1.00;;;;;;7357049;19;19941;-64
2022/04/27 10:35:21;;;;;;;6.25;4.88;;;13.60;1.00;;;;;;7362664;19;20007;-64
2022/04/27 10:37:54;;;;;;;7.47;4.95;;;13.50;1.00;;;;;;7366148;19;20085;-63
2022/04/27 10:40:35;;;;;;;6.72;4.85;;;13.40;1.00;;;;;;7386745;19;20035;-63
2022/04/27 10:43:13;;;;;;;6.50;4.90;;;13.80;1.00;;;;;;7355550;19;20017;-63
2022/04/27 10:45:48;;;;;;;7.07;5.53;;;13.60;1.00;;;;;;7364209;19;20511;-63
2022/04/27 10:48:19;;;;;;;6.78;5.25;;;13.90;1.00;;;;;;7365444;19;20035;-64
2022/04/27 10:51:01;;;;;;;6.78;5.20;;;14.10;1.00;;;;;;7364767;19;20093;-63
2022/04/27 10:53:41;;;;;;;5.72;4.88;;;13.80;1.00;;;;;;7356736;19;20035;-64
2022/04/27 10:56:31;;;;;;;6.05;5.18;;;14.10;1.00;;;;;;7363189;19;20013;-63
2022/04/27 10:59:02;;;;;;;6.00;5.38;;;13.80;1.00;;;;;;7366355;19;20071;-63
2022/04/27 11:01:34;;;;;;;7.75;5.43;;;14.00;1.00;;;;;;7383070;19;20035;-63
2022/04/27 11:04:14;;;;;;;6.68;5.50;;;13.90;1.00;;;;;;7357837;19;20039;-63
2022/04/27 11:07:22;;;;;;;6.20;5.05;;;13.90;1.00;;;;;;7363742;19;20018;-63
2022/04/27 11:10:21;;;;;;;5.85;5.20;;;14.40;1.00;;;;;;7363871;19;20010;-62
2022/04/27 11:12:53;;;;;;;6.63;5.68;;;14.80;1.00;;;;;;7354714;19;20015;-62
2022/04/27 11:15:25;;;;;;;5.40;4.82;;;14.90;1.00;;;;;;7360037;19;20011;-63
2022/04/27 11:18:00;;;;;;;7.53;5.47;;;15.00;1.00;;;;;;7364409;19;20021;-63
2022/04/27 11:20:38;;;;;;;7.20;5.00;;;15.40;1.00;;;;;;7364516;19;20017;-64
2022/04/27 11:23:09;;;;;;;6.47;5.65;;;15.70;1.00;;;;;;7356126;19;20496;-63
2022/04/27 11:25:41;;;;;;;7.85;6.00;;;15.50;1.00;;;;;;7384493;19;20113;-63
2022/04/27 11:28:11;;;;;;;6.78;5.60;;;15.50;1.00;;;;;;7364797;19;20018;-62
2022/04/27 11:30:41;;;;;;;7.68;5.50;;;15.70;1.00;;;;;;7364276;19;20033;-62
2022/04/27 11:33:14;;;;;;;5.50;4.97;;;15.50;1.00;;;;;;7354737;19;20426;-62
2022/04/27 11:35:47;;;;;;;6.90;5.57;;;16.00;1.00;;;;;;7361625;19;20015;-63
2022/04/27 11:38:21;;;;;;;5.70;5.10;;;16.40;1.00;;;;;;7364114;19;20038;-62
2022/04/27 11:40:52;;;;;;;5.90;5.03;;;15.90;1.00;;;;;;7363886;19;20181;-62
2022/04/27 11:43:27;;;;;;;6.38;5.20;;;15.40;1.00;;;;;;7377351;19;20537;-64
2022/04/27 11:45:58;;;;;;;7.45;5.20;;;15.60;1.00;;;;;;7361544;19;20726;-63
2022/04/27 11:48:33;;;;;;;5.72;5.03;;;16.00;1.00;;;;;;7362171;19;20007;-63
2022/04/27 11:51:06;;;;;;;6.85;5.05;;;15.60;1.00;;;;;;7363090;19;20065;-63
2022/04/27 11:53:47;;;;;;;5.93;5.32;;;15.60;1.00;;;;;;7354392;19;20010;-64
2022/04/27 11:56:17;;;;;;;6.22;4.70;;;15.30;1.00;;;;;;7361883;19;20101;-63
2022/04/27 11:58:48;;;;;;;6.22;4.68;;;15.30;1.00;;;;;;7364524;19;20019;-63
2022/04/27 12:01:22;;;;;;;5.68;4.85;;;15.40;1.00;;;;;;7381918;19;20082;-63
2022/04/27 12:03:55;;;;;;;;;;;15.10;1.00;;;;;;7358161;19;20044;-63
2022/04/27 12:06:27;;;;;;;6.10;5.45;;;15.30;1.00;;;;;;7362066;19;19907;-62
2022/04/27 12:09:02;;;;;;;7.25;5.07;;;15.10;1.00;;;;;;7363007;19;20090;-63
2022/04/27 12:11:32;;;;;;;8.20;7.00;;;14.80;1.00;;;;;;7358206;19;20643;-62
2022/04/27 12:14:02;;;;;;;5.75;5.03;;;14.80;1.00;;;;;;7359298;19;20026;-63
2022/04/27 12:16:32;;;;;;;5.82;5.13;;;15.10;1.00;;;;;;7383427;19;20014;-63
2022/04/27 12:19:06;;;;;;;7.43;5.63;;;15.20;1.00;;;;;;7362806;19;20010;-63
2022/04/27 12:21:37;;;;;;;6.50;5.47;;;15.00;1.00;;;;;;7358051;19;20011;-63
2022/04/27 12:24:25;;;;;;;8.10;6.05;;;15.10;1.00;;;;;;7357285;19;20018;-62
2022/04/27 12:27:00;;;;;;;7.22;5.43;;;14.80;1.00;;;;;;7363574;19;20020;-65
2022/04/27 12:29:38;;;;;;;7.05;5.68;;;14.90;1.00;;;;;;7368706;19;20018;-65
2022/04/27 12:32:14;;;;;;;6.70;6.00;;;14.80;1.00;;;;;;7364968;19;20125;-63
2022/04/27 12:37:49;;;;;;;11.35;5.95;;;15.50;1.00;;;;;;7370810;19;20011;-62
2022/04/27 12:40:20;;;;;;;6.32;4.88;;;15.90;1.00;;;;;;7392117;19;20017;-64
2022/04/27 12:43:04;;;;;;;6.22;4.90;;;16.50;1.00;;;;;;7361691;19;20017;-63
2022/04/27 12:45:36;;;;;;;6.32;4.82;;;16.50;1.00;;;;;;7367782;19;20514;-63
2022/04/27 12:48:07;;;;;;;6.40;4.82;;;16.30;1.00;;;;;;7369461;19;20023;-63
2022/04/27 12:50:49;;;;;;;5.45;4.85;;;16.40;1.00;;;;;;7369626;19;20090;-63
2022/04/27 12:53:19;;;;;;;6.57;4.70;;;16.70;1.00;;;;;;7360751;19;20021;-63
2022/04/27 12:56:03;;;;;;;5.20;4.65;;;16.50;1.00;;;;;;7365906;19;20018;-63
2022/04/27 12:58:33;;;;;;;6.00;5.03;;;16.30;1.00;;;;;;7391666;19;20418;-62
2022/04/27 13:01:03;;;;;;;5.30;4.78;;;15.70;1.00;;;;;;7368692;19;20015;-63
2022/04/27 13:03:33;;;;;;;5.10;4.57;;;15.90;1.00;;;;;;7359272;19;20006;-62
2022/04/27 13:06:06;;;;;;;5.82;5.22;;;15.90;1.00;;;;;;7366660;19;20014;-63
2022/04/27 13:08:36;;;;;;;5.35;4.70;;;16.10;1.00;;;;;;7368582;19;20007;-63
2022/04/27 13:13:52;;;;;;;6.75;5.13;;;16.40;1.00;;;;;;7362912;19;20103;-63
2022/04/27 13:16:24;;;;;;;6.53;4.53;;;16.00;1.00;;;;;;7388883;19;20017;-62
2022/04/27 13:18:58;;;;;;;5.32;4.82;;;15.80;1.00;;;;;;7367686;19;20036;-62
2022/04/27 13:21:31;;;;;;;4.97;4.47;;;15.30;1.00;;;;;;7365149;19;20082;-63
2022/04/27 13:24:01;;;;;;;5.40;4.80;;;15.90;1.00;;;;;;7363428;19;20056;-63
2022/04/27 13:26:30;;;;;;;5.68;4.70;;;16.20;1.00;;;;;;7367202;19;20022;-64
2022/04/27 13:29:00;;;;;;;5.97;5.38;;;16.40;1.00;;;;;;7368715;19;20017;-64
2022/04/27 13:31:30;;;;;;;7.95;5.03;;;16.40;1.00;;;;;;7386288;19;20014;-63
2022/04/27 13:34:00;;;;;;;6.00;5.10;;;16.10;1.00;;;;;;7363024;19;20130;-63
2022/04/27 13:36:33;;;;;;;6.18;4.95;;;16.10;1.00;;;;;;7366839;19;20031;-63
2022/04/27 13:39:03;;;;;;;5.78;5.10;;;16.40;1.00;;;;;;7367978;19;20007;-63